Time;durP1;ratioP1;P1;durP2;ratioP2;P2;SDS_P1;SDS_P2;PMS_P1;PMS_P2;Temp;Humidity;BMP_temperature;BMP_pressure;BME280_temperature;BME280_humidity;BME280_pressure;Samples;Min_cycle;Max_cycle;Signal;HPM_P1;HPM_P2
2021/03/06 00:00:07;;;;;;;7.53;2.42;;;2.40;81.40;;;;;;5052605;28;20124;-68
2021/03/06 00:02:33;;;;;;;9.60;3.38;;;2.40;81.50;;;;;;5052279;28;20025;-70
2021/03/06 00:04:59;;;;;;;7.18;2.63;;;2.30;81.60;;;;;;5051882;28;20025;-70
2021/03/06 00:07:25;;;;;;;9.82;2.83;;;2.20;81.70;;;;;;5051997;28;20039;-68
2021/03/06 00:09:50;;;;;;;11.43;3.22;;;2.20;82.00;;;;;;5034757;28;20036;-67
2021/03/06 00:12:16;;;;;;;8.80;3.40;;;2.10;82.20;;;;;;5033610;28;20044;-68
2021/03/06 00:14:41;;;;;;;7.13;3.20;;;2.00;82.40;;;;;;5052444;28;20021;-68
2021/03/06 00:17:07;;;;;;;6.47;2.92;;;2.00;82.80;;;;;;5035611;28;20059;-70
2021/03/06 00:19:32;;;;;;;7.22;3.00;;;1.90;83.00;;;;;;5037788;28;20036;-68
2021/03/06 00:21:58;;;;;;;7.28;3.15;;;1.80;83.20;;;;;;5056471;28;20025;-68
2021/03/06 00:24:24;;;;;;;8.63;3.67;;;1.80;83.50;;;;;;5038352;28;20029;-70
2021/03/06 00:26:50;;;;;;;6.35;2.95;;;1.70;83.70;;;;;;5055471;28;20033;-67
2021/03/06 00:29:15;;;;;;;10.63;3.60;;;1.70;83.90;;;;;;5056102;28;20071;-71
2021/03/06 00:31:41;;;;;;;6.13;3.00;;;1.60;84.10;;;;;;5038444;28;20120;-68
2021/03/06 00:34:07;;;;;;;6.82;3.75;;;1.60;84.30;;;;;;5056100;28;20021;-73
2021/03/06 00:36:33;;;;;;;10.65;5.43;;;1.50;84.40;;;;;;5055844;28;20021;-68
2021/03/06 00:38:59;;;;;;;7.53;3.35;;;1.60;84.70;;;;;;5055572;28;20031;-70
2021/03/06 00:41:25;;;;;;;5.60;2.58;;;1.60;84.70;;;;;;5055928;28;20112;-75
2021/03/06 00:43:50;;;;;;;7.47;3.20;;;1.60;84.70;;;;;;5038478;28;20409;-75
2021/03/06 00:46:16;;;;;;;8.10;2.97;;;1.70;84.80;;;;;;5055242;28;20020;-77
2021/03/06 00:48:42;;;;;;;11.65;4.53;;;1.70;84.80;;;;;;5038169;28;20114;-77
2021/03/06 00:51:07;;;;;;;9.50;3.15;;;1.80;84.70;;;;;;5056283;28;20021;-73
2021/03/06 00:53:38;;;;;;;19.33;9.52;;;1.80;84.60;;;;;;5037391;28;20048;-76
2021/03/06 00:56:04;;;;;;;64.72;43.63;;;1.80;84.50;;;;;;5055617;28;20053;-75
2021/03/06 00:58:29;;;;;;;33.28;21.45;;;1.80;84.30;;;;;;5055649;28;20083;-70
2021/03/06 01:00:56;;;;;;;22.10;12.40;;;1.80;84.30;;;;;;5055292;28;20053;-67
2021/03/06 01:03:21;;;;;;;14.15;7.43;;;1.90;84.40;;;;;;5055302;28;20024;-77
2021/03/06 01:05:47;;;;;;;11.45;5.85;;;1.90;84.40;;;;;;5038562;28;20032;-67
2021/03/06 01:08:13;;;;;;;9.25;5.15;;;1.90;85.00;;;;;;5036952;28;20036;-67
2021/03/06 01:10:41;;;;;;;10.82;4.68;;;1.90;84.50;;;;;;5055696;28;20063;-74
2021/03/06 01:13:07;;;;;;;11.75;5.18;;;1.80;84.50;;;;;;5055637;28;20116;-69
2021/03/06 01:15:34;;;;;;;16.00;4.38;;;1.80;84.70;;;;;;5036617;28;20029;-72
2021/03/06 01:18:00;;;;;;;16.95;5.03;;;1.70;84.80;;;;;;5055604;28;20029;-68
2021/03/06 01:20:26;;;;;;;13.60;4.30;;;1.70;85.00;;;;;;5052628;28;20021;-77
2021/03/06 01:22:52;;;;;;;16.75;4.50;;;1.70;85.20;;;;;;5055593;28;20025;-73
2021/03/06 01:25:18;;;;;;;11.43;4.20;;;1.60;85.40;;;;;;5055485;28;20035;-74
2021/03/06 01:27:44;;;;;;;7.22;3.50;;;1.60;85.80;;;;;;5054621;28;20033;-77
2021/03/06 01:30:11;;;;;;;8.95;3.05;;;1.50;85.90;;;;;;5036213;28;20025;-69
2021/03/06 01:32:36;;;;;;;7.22;3.00;;;1.50;86.10;;;;;;5055303;28;20060;-73
2021/03/06 01:35:05;;;;;;;7.68;3.65;;;1.50;86.40;;;;;;5054593;28;20064;-72
2021/03/06 01:37:31;;;;;;;10.18;3.47;;;1.50;86.60;;;;;;5037089;28;20025;-73
2021/03/06 01:39:57;;;;;;;8.27;3.08;;;1.40;86.70;;;;;;5037338;28;20078;-73
2021/03/06 01:42:22;;;;;;;7.82;4.28;;;1.40;86.80;;;;;;5036345;28;20017;-74
2021/03/06 01:44:48;;;;;;;9.48;3.78;;;1.30;87.00;;;;;;5055323;28;20393;-74
2021/03/06 01:47:13;;;;;;;7.63;2.90;;;1.30;87.20;;;;;;5036923;28;20225;-76
2021/03/06 01:49:39;;;;;;;12.23;3.22;;;1.40;87.30;;;;;;5054372;28;20021;-71
2021/03/06 01:52:05;;;;;;;7.10;3.35;;;1.40;87.30;;;;;;5055028;28;20032;-75
2021/03/06 01:54:32;;;;;;;6.45;3.15;;;1.40;87.40;;;;;;5053700;28;20568;-72
2021/03/06 01:56:57;;;;;;;9.55;3.42;;;1.40;87.50;;;;;;5054906;28;20041;-71
2021/03/06 01:59:23;;;;;;;6.40;2.90;;;1.30;87.60;;;;;;5054539;28;20103;-72
2021/03/06 02:01:49;;;;;;;6.95;4.20;;;1.30;87.70;;;;;;5054069;28;20056;-72
2021/03/06 02:04:16;;;;;;;8.45;4.35;;;1.30;87.80;;;;;;5054261;28;20029;-70
2021/03/06 02:06:42;;;;;;;7.85;4.22;;;1.30;88.00;;;;;;5054528;28;20021;-74
2021/03/06 02:09:07;;;;;;;8.85;4.78;;;1.30;88.20;;;;;;5054096;28;20017;-72
2021/03/06 02:11:42;;;;;;;7.95;3.55;;;1.30;88.40;;;;;;5054327;28;20036;-73
2021/03/06 02:14:21;;;;;;;10.00;3.50;;;1.30;88.50;;;;;;5054781;28;20029;-70
2021/03/06 02:16:59;;;;;;;8.95;3.30;;;1.30;88.50;;;;;;5053740;28;20020;-70
2021/03/06 02:19:49;;;;;;;11.68;3.65;;;1.30;88.50;;;;;;5054144;28;20103;-70
2021/03/06 02:22:36;;;;;;;12.48;4.93;;;1.20;88.50;;;;;;5054132;28;20064;-70
2021/03/06 02:25:33;;;;;;;9.95;6.38;;;1.20;88.60;;;;;;5054290;28;20075;-70
2021/03/06 02:28:27;;;;;;;7.28;4.80;;;1.20;88.70;;;;;;5054151;28;20493;-67
2021/03/06 02:30:55;;;;;;;8.20;7.13;;;1.10;88.80;;;;;;5053553;28;20024;-69
2021/03/06 02:33:26;;;;;;;6.50;5.90;;;1.00;89.50;;;;;;5053928;28;20079;-69
2021/03/06 02:35:53;;;;;;;12.73;6.32;;;1.00;89.10;;;;;;5053848;28;20465;-69
2021/03/06 02:38:20;;;;;;;14.10;7.22;;;1.00;89.20;;;;;;5035268;28;20053;-69
2021/03/06 02:40:47;;;;;;;11.55;6.18;;;0.90;89.30;;;;;;5053846;28;20028;-71
2021/03/06 02:43:14;;;;;;;8.00;4.57;;;0.90;89.50;;;;;;5053700;28;20385;-72
2021/03/06 02:45:40;;;;;;;11.02;7.32;;;0.90;89.70;;;;;;5035439;28;20079;-69
2021/03/06 02:48:06;;;;;;;8.85;8.05;;;0.90;89.80;;;;;;5035818;28;20036;-69
2021/03/06 02:50:32;;;;;;;14.85;7.03;;;0.80;89.90;;;;;;5053467;28;20021;-68
2021/03/06 02:52:57;;;;;;;9.98;7.38;;;0.80;90.00;;;;;;5053502;28;20025;-74
2021/03/06 02:55:23;;;;;;;11.13;7.35;;;0.80;90.10;;;;;;5053315;28;20501;-73
2021/03/06 02:58:13;;;;;;;12.23;11.07;;;0.80;90.20;;;;;;5053028;28;20021;-71
2021/03/06 03:00:43;;;;;;;17.05;15.63;;;0.70;90.20;;;;;;5035829;28;20428;-70
2021/03/06 03:03:11;;;;;;;14.57;11.18;;;0.70;90.20;;;;;;5053332;28;20351;-68
2021/03/06 03:05:44;;;;;;;12.32;11.25;;;0.70;90.20;;;;;;5052785;28;20032;-69
2021/03/06 03:08:25;;;;;;;15.32;14.00;;;0.70;90.30;;;;;;5053134;28;20033;-74
2021/03/06 03:10:55;;;;;;;14.73;13.45;;;0.60;90.30;;;;;;5035717;28;20470;-71
2021/03/06 03:13:29;;;;;;;13.50;12.55;;;0.60;90.30;;;;;;5052444;28;20025;-68
2021/03/06 03:16:06;;;;;;;20.52;19.05;;;0.60;90.30;;;;;;5053331;28;20082;-70
2021/03/06 03:18:38;;;;;;;15.65;14.40;;;0.50;90.40;;;;;;5053157;28;20017;-73
2021/03/06 03:21:05;;;;;;;16.90;15.70;;;0.50;90.40;;;;;;5052700;28;20105;-73
2021/03/06 03:23:38;;;;;;;19.25;17.90;;;0.50;90.40;;;;;;5052881;28;20103;-72
2021/03/06 03:26:08;;;;;;;20.20;18.65;;;0.50;90.50;;;;;;5052435;28;20502;-76
2021/03/06 03:28:37;;;;;;;20.95;19.17;;;0.50;90.50;;;;;;5053476;28;20064;-76
2021/03/06 03:31:03;;;;;;;19.52;17.98;;;0.50;90.50;;;;;;5053150;28;20017;-77
2021/03/06 03:33:30;;;;;;;22.10;20.55;;;0.50;90.60;;;;;;5052116;28;20032;-75
2021/03/06 03:35:57;;;;;;;19.33;17.33;;;0.40;90.60;;;;;;5035216;28;20020;-71
2021/03/06 03:38:23;;;;;;;26.02;24.27;;;0.40;90.60;;;;;;5052747;28;20025;-74
2021/03/06 03:40:49;;;;;;;17.73;16.48;;;0.40;90.60;;;;;;5052144;28;20029;-74
2021/03/06 03:43:15;;;;;;;23.88;22.27;;;0.40;90.70;;;;;;5034660;28;20040;-78
2021/03/06 03:45:41;;;;;;;20.83;19.15;;;0.40;90.70;;;;;;5052815;28;20108;-77
2021/03/06 03:48:07;;;;;;;22.55;20.90;;;0.40;90.80;;;;;;5034346;28;20124;-78
2021/03/06 03:50:33;;;;;;;27.48;25.33;;;0.40;90.80;;;;;;5052609;28;20028;-78
2021/03/06 03:52:59;;;;;;;27.15;25.33;;;0.40;90.80;;;;;;5052183;28;20033;-78
2021/03/06 03:55:24;;;;;;;24.75;23.17;;;0.30;90.80;;;;;;5051517;28;20094;-77
2021/03/06 03:57:51;;;;;;;33.85;31.23;;;0.30;90.90;;;;;;5052617;28;20088;-77
2021/03/06 04:00:18;;;;;;;26.50;24.73;;;0.30;90.90;;;;;;5052275;28;20021;-82
2021/03/06 04:02:45;;;;;;;27.45;25.33;;;0.30;91.00;;;;;;5051991;28;20029;-77
2021/03/06 04:05:11;;;;;;;23.85;22.30;;;0.20;91.00;;;;;;5052446;28;20446;-74
2021/03/06 04:07:48;;;;;;;34.35;31.92;;;0.20;91.00;;;;;;5052605;28;20033;-75
2021/03/06 04:10:16;;;;;;;33.33;31.13;;;0.20;91.00;;;;;;5051462;28;20056;-75
2021/03/06 04:12:43;;;;;;;33.35;31.10;;;0.20;91.00;;;;;;5052706;28;20032;-79
2021/03/06 04:15:10;;;;;;;29.65;27.88;;;0.20;91.00;;;;;;5051346;28;20027;-71
2021/03/06 04:17:36;;;;;;;48.30;45.20;;;0.20;91.10;;;;;;5052542;28;20029;-76
2021/03/06 04:20:06;;;;;;;42.35;39.78;;;0.20;91.10;;;;;;5052789;28;20426;-77
2021/03/06 04:22:32;;;;;;;37.65;35.33;;;0.10;91.10;;;;;;5051440;28;20025;-77
2021/03/06 04:24:57;;;;;;;33.60;31.45;;;0.10;91.10;;;;;;5034674;28;20500;-75
2021/03/06 04:27:23;;;;;;;45.28;42.38;;;0.10;91.10;;;;;;5034164;28;20071;-77
2021/03/06 04:29:49;;;;;;;49.40;46.17;;;0.10;91.20;;;;;;5051708;28;20056;-74
2021/03/06 04:32:14;;;;;;;43.42;40.65;;;0.10;91.20;;;;;;5052199;28;20036;-76
2021/03/06 04:34:40;;;;;;;46.35;43.67;;;0.10;91.30;;;;;;5034398;28;20484;-77
2021/03/06 04:37:06;;;;;;;61.58;57.90;;;0.00;91.20;;;;;;5051595;28;20108;-72
2021/03/06 04:39:32;;;;;;;45.65;42.50;;;0.00;91.30;;;;;;5052145;28;20021;-72
2021/03/06 04:41:57;;;;;;;53.47;50.17;;;0.00;91.30;;;;;;5034448;28;20354;-76
2021/03/06 04:44:23;;;;;;;48.10;45.15;;;0.00;91.30;;;;;;5051269;28;20025;-72
2021/03/06 04:46:48;;;;;;;59.42;56.00;;;0.00;91.40;;;;;;5051917;28;20028;-76
2021/03/06 04:49:14;;;;;;;62.85;59.42;;;0.00;91.40;;;;;;5051991;28;20041;-75
2021/03/06 04:51:39;;;;;;;65.03;61.25;;;0.00;91.40;;;;;;5051848;28;20027;-75
2021/03/06 04:54:05;;;;;;;78.63;74.07;;;0.00;91.50;;;;;;5052267;28;20127;-76
2021/03/06 04:56:31;;;;;;;74.18;70.05;;;-0.10;91.50;;;;;;5051746;28;20049;-76
2021/03/06 04:58:56;;;;;;;78.97;74.68;;;-0.10;91.50;;;;;;5051618;28;20029;-71
2021/03/06 05:01:22;;;;;;;74.57;70.55;;;-0.10;91.50;;;;;;5051780;28;20079;-71
2021/03/06 05:03:49;;;;;;;82.28;77.82;;;-0.10;91.50;;;;;;5054271;28;20029;-76
2021/03/06 05:06:14;;;;;;;89.25;84.13;;;-0.10;91.60;;;;;;5054839;28;20029;-84
2021/03/06 05:08:40;;;;;;;79.88;74.95;;;-0.10;91.60;;;;;;5055847;28;20107;-76
2021/03/06 05:11:09;;;;;;;87.10;82.30;;;-0.10;91.70;;;;;;5037844;28;20060;-73
2021/03/06 05:13:35;;;;;;;86.97;82.00;;;-0.10;92.00;;;;;;5055089;28;20412;-72
2021/03/06 05:16:02;;;;;;;90.60;84.95;;;-0.20;91.70;;;;;;5055559;28;20025;-73
2021/03/06 05:18:29;;;;;;;88.95;84.00;;;-0.20;91.70;;;;;;5054657;28;20033;-70
2021/03/06 05:20:55;;;;;;;99.45;93.97;;;-0.20;91.70;;;;;;5055593;28;20033;-75
2021/03/06 05:23:21;;;;;;;115.03;109.00;;;-0.20;91.70;;;;;;5037314;28;20078;-76
2021/03/06 05:25:46;;;;;;;104.35;98.78;;;-0.20;91.70;;;;;;5036824;28;20035;-72
2021/03/06 05:28:12;;;;;;;105.43;99.47;;;-0.20;91.80;;;;;;5037195;28;20084;-76
2021/03/06 05:30:37;;;;;;;105.03;99.35;;;-0.20;91.80;;;;;;5037448;28;20560;-72
2021/03/06 05:33:03;;;;;;;116.22;109.90;;;-0.20;91.80;;;;;;5054621;28;20543;-71
2021/03/06 05:35:29;;;;;;;112.75;106.88;;;-0.30;91.80;;;;;;5055140;28;20021;-75
2021/03/06 05:37:55;;;;;;;112.88;106.63;;;-0.30;91.80;;;;;;5055183;28;20028;-73
2021/03/06 05:40:21;;;;;;;126.28;119.60;;;-0.20;91.90;;;;;;5054343;28;20466;-76
2021/03/06 05:42:47;;;;;;;115.97;110.13;;;-0.30;91.90;;;;;;5054932;28;20025;-73
2021/03/06 05:45:13;;;;;;;122.57;116.00;;;-0.30;92.10;;;;;;5054770;28;20462;-76
2021/03/06 05:47:39;;;;;;;126.68;119.82;;;-0.30;91.90;;;;;;5054161;28;20123;-77
2021/03/06 05:50:05;;;;;;;121.22;114.15;;;-0.30;91.90;;;;;;5037368;28;20025;-74
2021/03/06 05:52:32;;;;;;;124.53;117.93;;;-0.30;91.90;;;;;;5054526;28;20070;-74
2021/03/06 05:55:00;;;;;;;126.45;119.53;;;-0.30;91.90;;;;;;5054030;28;20145;-73
2021/03/06 05:57:27;;;;;;;124.57;117.78;;;-0.30;91.90;;;;;;5054459;28;20109;-76
2021/03/06 05:59:53;;;;;;;144.88;136.95;;;-0.30;92.00;;;;;;5054897;28;20021;-76
2021/03/06 06:02:19;;;;;;;128.77;121.57;;;-0.30;92.00;;;;;;5053862;28;20411;-87
2021/03/06 06:04:46;;;;;;;136.25;128.88;;;-0.30;92.00;;;;;;5037208;28;20358;-84
2021/03/06 06:07:18;;;;;;;147.68;139.48;;;-0.30;92.00;;;;;;5054481;28;20025;-85
2021/03/06 06:09:45;;;;;;;157.80;149.45;;;-0.30;92.00;;;;;;5054630;28;20029;-78
2021/03/06 06:12:10;;;;;;;151.63;142.68;;;-0.30;92.10;;;;;;5054634;28;20021;-75
2021/03/06 06:14:40;;;;;;;145.30;137.57;;;-0.30;92.10;;;;;;5053376;28;20040;-75
2021/03/06 06:17:07;;;;;;;133.85;125.80;;;-0.30;92.10;;;;;;5054414;28;20104;-75
2021/03/06 06:19:34;;;;;;;159.82;151.57;;;-0.30;92.10;;;;;;5054246;28;20466;-77
2021/03/06 06:22:01;;;;;;;122.05;115.32;;;-0.30;92.10;;;;;;5053783;28;20036;-77
2021/03/06 06:24:27;;;;;;;130.70;123.68;;;-0.30;92.10;;;;;;5053994;28;20017;-77
2021/03/06 06:26:58;;;;;;;119.72;112.65;;;-0.30;92.10;;;;;;5054519;28;20032;-75
2021/03/06 06:29:41;;;;;;;138.83;131.30;;;-0.20;92.10;;;;;;5035599;28;20024;-72
2021/03/06 06:32:27;;;;;;;160.70;152.30;;;-0.20;92.10;;;;;;5054270;28;20029;-69
2021/03/06 06:35:05;;;;;;;141.93;134.65;;;-0.20;92.10;;;;;;5053928;28;20049;-71
2021/03/06 06:37:31;;;;;;;159.13;150.75;;;-0.20;92.00;;;;;;5048153;28;20029;-80
2021/03/06 06:39:57;;;;;;;97.70;92.22;;;-0.10;92.00;;;;;;5043827;28;20037;-76
2021/03/06 06:42:33;;;;;;;109.38;103.43;;;-0.10;92.00;;;;;;5033673;28;20111;-70
2021/03/06 06:44:59;;;;;;;94.63;89.32;;;-0.10;92.00;;;;;;5051549;28;20021;-76
2021/03/06 06:47:39;;;;;;;82.35;77.85;;;0.00;92.00;;;;;;5035586;28;20489;-77
2021/03/06 06:50:07;;;;;;;81.28;76.65;;;0.00;91.90;;;;;;5035245;28;20424;-78
2021/03/06 06:52:41;;;;;;;80.75;76.30;;;0.10;91.90;;;;;;5053481;28;20032;-77
2021/03/06 06:55:11;;;;;;;83.85;79.30;;;0.20;91.90;;;;;;5053774;28;20073;-72
2021/03/06 06:57:50;;;;;;;67.28;63.70;;;0.20;91.90;;;;;;5053091;28;20025;-71
2021/03/06 07:00:17;;;;;;;67.43;63.40;;;0.30;91.80;;;;;;5035374;28;20477;-73
2021/03/06 07:02:57;;;;;;;38.58;35.75;;;0.30;91.80;;;;;;5053479;28;20107;-76
2021/03/06 07:05:31;;;;;;;51.83;48.70;;;0.40;91.80;;;;;;5052713;28;20127;-74
2021/03/06 07:07:58;;;;;;;36.05;33.83;;;0.50;91.70;;;;;;5053620;28;20037;-76
2021/03/06 07:10:24;;;;;;;31.55;29.33;;;0.50;91.70;;;;;;5053350;28;20031;-75
2021/03/06 07:13:09;;;;;;;24.05;22.38;;;0.60;91.60;;;;;;5052775;28;20037;-76
2021/03/06 07:15:36;;;;;;;31.13;28.70;;;0.60;91.60;;;;;;5053252;28;20021;-75
2021/03/06 07:18:07;;;;;;;17.98;16.35;;;0.70;91.60;;;;;;5052695;28;20424;-75
2021/03/06 07:20:34;;;;;;;19.08;17.60;;;0.70;91.60;;;;;;5052970;28;20079;-73
2021/03/06 07:23:12;;;;;;;19.48;17.33;;;0.80;91.60;;;;;;5053206;28;20446;-76
2021/03/06 07:25:38;;;;;;;13.60;9.95;;;0.90;91.50;;;;;;5052384;28;20017;-78
2021/03/06 07:28:04;;;;;;;13.02;11.70;;;1.00;91.50;;;;;;5053017;28;20072;-75
2021/03/06 07:30:30;;;;;;;16.63;7.90;;;1.00;91.50;;;;;;5052792;28;20025;-77
2021/03/06 07:32:57;;;;;;;10.80;7.40;;;1.10;91.40;;;;;;5022274;28;20120;-74
2021/03/06 07:35:24;;;;;;;10.30;7.78;;;1.20;91.40;;;;;;5032706;28;20101;-76
2021/03/06 07:37:57;;;;;;;14.00;7.22;;;1.30;91.40;;;;;;5033092;28;20139;-75
2021/03/06 07:40:29;;;;;;;9.50;5.65;;;1.40;91.40;;;;;;5032132;28;20035;-79
2021/03/06 07:42:58;;;;;;;7.38;6.57;;;1.50;91.30;;;;;;5015463;28;20505;-72
2021/03/06 07:45:28;;;;;;;8.98;4.85;;;1.50;91.30;;;;;;5020666;28;20116;-78
2021/03/06 07:48:06;;;;;;;9.80;4.80;;;1.60;91.30;;;;;;5032256;28;20061;-79
2021/03/06 07:50:35;;;;;;;9.77;5.53;;;1.70;91.20;;;;;;5032771;28;20022;-76
2021/03/06 07:53:02;;;;;;;23.00;16.73;;;1.80;91.20;;;;;;5039049;28;20078;-75
2021/03/06 07:55:30;;;;;;;9.55;5.90;;;1.80;91.10;;;;;;5037109;28;20040;-78
2021/03/06 07:58:01;;;;;;;9.75;4.38;;;2.00;91.20;;;;;;5035879;28;20048;-76
2021/03/06 08:00:40;;;;;;;8.45;5.30;;;2.10;91.10;;;;;;5043974;28;20025;-76
2021/03/06 08:03:33;;;;;;;12.48;5.57;;;2.20;91.00;;;;;;5068672;28;20088;-74
2021/03/06 08:06:21;;;;;;;11.93;3.60;;;2.30;91.00;;;;;;5021042;28;20029;-74
2021/03/06 08:08:47;;;;;;;6.65;3.15;;;2.40;90.90;;;;;;5033765;28;20116;-77
2021/03/06 08:11:18;;;;;;;8.63;2.83;;;2.50;90.90;;;;;;5034054;28;20544;-88
2021/03/06 08:13:57;;;;;;;6.10;2.67;;;2.70;90.80;;;;;;5032464;28;20425;-76
2021/03/06 08:16:28;;;;;;;9.52;2.88;;;2.80;90.80;;;;;;5031576;28;20037;-78
2021/03/06 08:19:09;;;;;;;6.35;2.50;;;3.00;90.70;;;;;;5032801;28;20474;-71
2021/03/06 08:21:40;;;;;;;6.80;2.90;;;3.10;90.60;;;;;;5042285;28;20394;-71
2021/03/06 08:24:24;;;;;;;11.32;3.65;;;3.20;90.50;;;;;;5032290;28;20026;-78
2021/03/06 08:27:01;;;;;;;8.38;2.85;;;3.30;90.50;;;;;;5050147;28;20041;-72
2021/03/06 08:29:27;;;;;;;7.72;2.40;;;3.40;90.50;;;;;;5051304;28;20021;-71
2021/03/06 08:32:03;;;;;;;7.18;3.40;;;3.50;90.50;;;;;;5038898;28;20062;-70
2021/03/06 08:34:34;;;;;;;6.18;2.47;;;3.60;90.50;;;;;;5014136;28;20068;-72
2021/03/06 08:37:15;;;;;;;8.93;2.58;;;3.70;90.40;;;;;;5025475;28;20028;-71
2021/03/06 08:40:01;;;;;;;7.22;2.35;;;3.70;90.40;;;;;;5037806;28;20029;-69
2021/03/06 08:42:58;;;;;;;5.63;1.90;;;3.80;90.40;;;;;;5055299;28;20021;-70
2021/03/06 08:45:28;;;;;;;5.75;2.05;;;3.90;90.30;;;;;;5041604;28;20378;-72
2021/03/06 08:48:02;;;;;;;6.07;2.28;;;3.90;90.30;;;;;;5056312;28;20039;-68
2021/03/06 08:50:30;;;;;;;7.55;3.28;;;4.00;90.30;;;;;;5075098;28;20017;-74
2021/03/06 08:53:03;;;;;;;15.07;4.03;;;4.00;90.30;;;;;;5075741;28;20032;-70
2021/03/06 08:55:34;;;;;;;10.43;2.80;;;4.10;90.30;;;;;;5075040;28;20052;-71
2021/03/06 08:58:17;;;;;;;8.30;2.47;;;4.10;90.30;;;;;;5074909;28;20032;-72
2021/03/06 09:00:49;;;;;;;9.63;2.60;;;4.10;90.20;;;;;;5075535;28;20103;-68
2021/03/06 09:03:17;;;;;;;7.57;2.63;;;4.20;90.20;;;;;;5075346;28;20024;-68
2021/03/06 09:05:48;;;;;;;8.05;3.03;;;4.30;90.20;;;;;;5063256;28;20021;-71
2021/03/06 09:08:18;;;;;;;9.63;2.83;;;4.40;90.20;;;;;;5055397;28;20091;-75
2021/03/06 09:10:45;;;;;;;4.72;2.33;;;4.50;90.10;;;;;;5054749;28;20027;-71
2021/03/06 09:13:16;;;;;;;7.60;2.42;;;4.70;90.00;;;;;;5036171;28;20096;-72
2021/03/06 09:15:51;;;;;;;5.30;2.58;;;4.90;89.80;;;;;;5052479;28;20544;-73
2021/03/06 09:18:25;;;;;;;9.50;2.88;;;5.10;89.20;;;;;;5054538;28;20074;-69
2021/03/06 09:20:56;;;;;;;6.65;2.22;;;5.40;88.80;;;;;;5055086;28;20017;-69
2021/03/06 09:23:27;;;;;;;10.35;2.30;;;5.60;88.20;;;;;;5055146;28;20121;-70
2021/03/06 09:25:54;;;;;;;8.45;2.33;;;5.90;87.70;;;;;;5054453;28;20433;-71
2021/03/06 09:28:25;;;;;;;7.60;2.92;;;6.10;87.30;;;;;;5054908;28;20029;-69
2021/03/06 09:30:51;;;;;;;5.73;2.17;;;6.40;86.70;;;;;;5042152;28;20044;-73
2021/03/06 09:33:21;;;;;;;7.97;2.58;;;6.50;85.80;;;;;;5053876;28;20029;-78
2021/03/06 09:36:14;;;;;;;5.13;2.25;;;6.70;84.80;;;;;;5036803;28;20025;-73
2021/03/06 09:38:52;;;;;;;6.18;2.08;;;6.80;84.10;;;;;;5049948;28;20037;-76
2021/03/06 09:41:27;;;;;;;4.25;2.08;;;6.90;83.30;;;;;;5036730;28;20024;-74
2021/03/06 09:43:58;;;;;;;5.80;1.92;;;6.90;82.10;;;;;;5037203;28;20401;-73
2021/03/06 09:46:30;;;;;;;6.55;1.40;;;6.80;80.50;;;;;;5049528;28;20032;-75
2021/03/06 09:48:56;;;;;;;8.98;1.90;;;6.80;74.50;;;;;;5056391;28;20036;-71
2021/03/06 09:51:24;;;;;;;5.60;1.40;;;6.60;73.50;;;;;;5031791;28;20025;-75
2021/03/06 09:53:57;;;;;;;3.80;1.10;;;6.50;72.30;;;;;;5035450;28;20482;-75
2021/03/06 09:56:23;;;;;;;3.58;1.30;;;6.40;73.20;;;;;;5052215;28;20132;-76
2021/03/06 09:58:58;;;;;;;4.50;1.20;;;6.30;70.90;;;;;;5054511;28;20116;-77
2021/03/06 10:01:23;;;;;;;2.22;1.17;;;6.30;70.30;;;;;;5053591;28;20025;-73
2021/03/06 10:03:49;;;;;;;2.47;1.10;;;6.40;70.80;;;;;;5054405;28;20174;-76
2021/03/06 10:06:25;;;;;;;7.85;1.40;;;6.30;69.70;;;;;;5035863;28;20518;-74
2021/03/06 10:08:57;;;;;;;4.63;1.17;;;6.40;70.60;;;;;;5036045;28;20132;-79
2021/03/06 10:11:33;;;;;;;6.03;1.02;;;6.50;70.50;;;;;;5034288;28;20021;-80
2021/03/06 10:13:59;;;;;;;3.92;1.38;;;6.50;68.80;;;;;;5053253;28;20033;-75
2021/03/06 10:16:25;;;;;;;3.35;1.52;;;6.50;69.10;;;;;;5034772;28;20029;-77
2021/03/06 10:18:51;;;;;;;2.75;0.90;;;6.60;68.80;;;;;;5038927;28;20039;-80
2021/03/06 10:21:21;;;;;;;8.10;1.63;;;6.70;68.10;;;;;;5051859;28;20028;-74
2021/03/06 10:23:48;;;;;;;4.22;1.20;;;6.80;68.80;;;;;;5044597;28;20028;-77
2021/03/06 10:26:23;;;;;;;5.63;1.42;;;7.00;69.70;;;;;;5035422;28;20017;-72
2021/03/06 10:28:55;;;;;;;4.93;1.30;;;7.10;67.90;;;;;;5016508;28;20043;-77
2021/03/06 10:31:37;;;;;;;3.85;1.58;;;7.10;65.30;;;;;;5016528;28;20024;-83
2021/03/06 10:34:21;;;;;;;;;;;7.10;64.20;;;;;;5031672;28;20032;-80
2021/03/06 10:37:13;;;;;;;3.15;0.93;;;7.10;64.40;;;;;;5052965;28;19909;-72
2021/03/06 10:40:04;;;;;;;3.83;1.20;;;7.10;63.70;;;;;;5054257;28;20017;-72
2021/03/06 10:42:44;;;;;;;2.88;1.10;;;7.10;64.00;;;;;;5051118;28;20086;-75
2021/03/06 10:45:23;;;;;;;2.38;1.15;;;7.10;64.70;;;;;;5053624;28;20029;-77
2021/03/06 10:47:50;;;;;;;2.60;1.00;;;7.00;65.10;;;;;;5053557;28;20037;-78
2021/03/06 10:50:32;;;;;;;4.70;1.23;;;6.90;64.60;;;;;;5051318;28;20017;-75
2021/03/06 10:53:15;;;;;;;4.72;1.13;;;6.70;64.10;;;;;;5053791;28;20032;-72
2021/03/06 10:55:42;;;;;;;2.60;1.42;;;6.60;64.10;;;;;;5035490;28;20045;-72
2021/03/06 10:58:08;;;;;;;5.28;2.42;;;6.50;64.30;;;;;;5053034;28;20052;-70
2021/03/06 11:00:34;;;;;;;1.90;1.00;;;6.50;63.70;;;;;;5053291;28;20074;-72
2021/03/06 11:03:05;;;;;;;5.55;1.65;;;6.50;63.20;;;;;;5053109;28;20024;-73
2021/03/06 11:05:31;;;;;;;1.52;0.80;;;6.60;64.00;;;;;;5053082;28;20083;-71
2021/03/06 11:08:10;;;;;;;3.78;1.17;;;6.60;64.40;;;;;;5053370;28;20029;-74
2021/03/06 11:10:41;;;;;;;4.78;1.10;;;6.70;64.60;;;;;;5050129;28;20040;-76
2021/03/06 11:13:06;;;;;;;3.85;1.17;;;6.80;64.70;;;;;;5018690;28;20155;-68
2021/03/06 11:15:33;;;;;;;3.55;0.95;;;6.80;63.90;;;;;;5039990;28;20104;-75
2021/03/06 11:18:02;;;;;;;1.92;0.93;;;6.80;64.00;;;;;;5053703;28;20047;-77
2021/03/06 11:20:30;;;;;;;4.60;1.00;;;6.90;64.00;;;;;;5051206;28;20017;-77
2021/03/06 11:22:58;;;;;;;2.42;0.90;;;6.90;63.90;;;;;;5041169;28;20039;-75
2021/03/06 11:25:24;;;;;;;4.93;1.67;;;7.00;63.70;;;;;;5051886;28;20021;-70
2021/03/06 11:27:59;;;;;;;1.95;0.98;;;7.00;63.90;;;;;;5050102;28;20443;-67
2021/03/06 11:30:37;;;;;;;3.45;1.15;;;7.00;63.80;;;;;;5052575;28;20194;-73
2021/03/06 11:33:06;;;;;;;1.88;1.00;;;7.10;64.10;;;;;;5057255;28;20028;-72
2021/03/06 11:35:33;;;;;;;2.22;1.00;;;7.20;64.20;;;;;;5036206;28;20029;-86
2021/03/06 11:37:59;;;;;;;4.97;1.13;;;7.20;64.00;;;;;;5051380;28;20027;-78
2021/03/06 11:40:30;;;;;;;1.80;1.00;;;7.30;63.40;;;;;;5059661;28;20102;-72
2021/03/06 11:42:56;;;;;;;1.88;1.00;;;7.40;63.50;;;;;;5045856;28;20387;-77
2021/03/06 11:45:23;;;;;;;2.08;1.30;;;7.40;63.70;;;;;;5051889;28;20031;-76
2021/03/06 11:47:50;;;;;;;1.48;0.80;;;7.40;62.90;;;;;;5030265;28;20048;-75
2021/03/06 11:50:18;;;;;;;4.20;1.30;;;7.30;62.60;;;;;;5035010;28;20152;-76
2021/03/06 11:52:44;;;;;;;1.58;1.02;;;7.30;62.50;;;;;;5014521;28;20025;-77
2021/03/06 11:55:12;;;;;;;3.95;1.73;;;7.30;63.00;;;;;;5032245;28;20045;-73
2021/03/06 11:57:38;;;;;;;2.70;1.50;;;7.30;63.30;;;;;;5015085;28;20029;-74
2021/03/06 12:00:15;;;;;;;2.35;1.20;;;7.20;63.50;;;;;;5014342;28;20021;-76
2021/03/06 12:02:41;;;;;;;3.53;1.95;;;7.30;63.70;;;;;;5016076;28;20043;-75
2021/03/06 12:05:08;;;;;;;5.55;1.90;;;7.20;61.80;;;;;;5032650;28;20100;-75
2021/03/06 12:07:34;;;;;;;5.03;1.42;;;7.20;62.50;;;;;;5031925;28;20034;-74
2021/03/06 12:10:00;;;;;;;4.88;1.58;;;7.20;62.30;;;;;;5032541;28;20022;-76
2021/03/06 12:12:26;;;;;;;3.03;1.42;;;7.30;62.30;;;;;;5031509;28;20030;-77
2021/03/06 12:14:52;;;;;;;3.53;1.20;;;7.30;62.60;;;;;;5031853;28;20504;-72
2021/03/06 12:17:18;;;;;;;1.88;1.10;;;7.40;62.90;;;;;;5014440;28;20026;-75
2021/03/06 12:19:43;;;;;;;2.92;1.20;;;7.40;62.70;;;;;;5032488;28;20075;-77
2021/03/06 12:22:09;;;;;;;2.50;1.02;;;7.40;62.70;;;;;;5031530;28;20371;-73
2021/03/06 12:24:35;;;;;;;1.77;1.10;;;7.50;62.80;;;;;;5032558;28;20025;-74
2021/03/06 12:27:00;;;;;;;1.77;1.05;;;7.70;62.40;;;;;;5014439;28;20105;-75
2021/03/06 12:29:26;;;;;;;1.80;1.30;;;7.80;61.90;;;;;;5031403;28;20030;-75
2021/03/06 12:31:51;;;;;;;3.25;1.25;;;8.00;61.40;;;;;;5015997;28;20014;-74
2021/03/06 12:34:17;;;;;;;2.13;1.38;;;8.10;61.30;;;;;;5032073;28;20164;-74
2021/03/06 12:36:43;;;;;;;3.15;1.50;;;8.20;61.50;;;;;;5031574;28;20092;-74
2021/03/06 12:39:09;;;;;;;2.70;1.70;;;8.30;60.80;;;;;;5032353;28;20029;-71
2021/03/06 12:41:35;;;;;;;1.70;1.10;;;8.50;60.50;;;;;;5013942;28;20021;-74
2021/03/06 12:44:01;;;;;;;3.10;1.35;;;8.60;59.90;;;;;;5032181;28;20033;-77
2021/03/06 12:46:27;;;;;;;2.25;1.17;;;8.70;59.80;;;;;;5014148;28;20025;-75
2021/03/06 12:48:53;;;;;;;3.42;1.48;;;9.00;59.60;;;;;;5031448;28;20119;-75
2021/03/06 12:51:22;;;;;;;4.78;1.40;;;9.20;58.40;;;;;;5014102;28;20066;-76
2021/03/06 12:53:47;;;;;;;1.40;1.20;;;9.50;58.00;;;;;;5032175;28;20025;-76
2021/03/06 12:56:13;;;;;;;3.53;1.40;;;9.70;57.00;;;;;;5030925;28;20517;-77